createdAt,value
2023-04-13T00:01:12.479Z,90.20
2023-04-13T00:03:40.177Z,91.40
2023-04-13T00:06:11.363Z,93.20
2023-04-13T00:08:43.630Z,92.70
2023-04-13T00:11:11.581Z,91.50
2023-04-13T00:13:43.232Z,91.50
2023-04-13T00:16:11.277Z,92.50
2023-04-13T00:18:38.527Z,91.80
2023-04-13T00:21:06.216Z,91.10
2023-04-13T00:23:36.240Z,91.20
2023-04-13T00:26:03.756Z,90.70
2023-04-13T00:28:31.031Z,91.90
2023-04-13T00:30:58.289Z,91.40
2023-04-13T00:33:25.832Z,90.00
2023-04-13T00:35:53.037Z,89.60
2023-04-13T00:38:20.143Z,93.10
2023-04-13T00:40:47.364Z,94.00
2023-04-13T00:43:15.248Z,94.80
2023-04-13T00:45:42.988Z,94.50
2023-04-13T00:48:11.273Z,96.40
2023-04-13T00:50:40.004Z,96.20
2023-04-13T00:53:10.647Z,95.80
2023-04-13T00:55:42.356Z,96.40
2023-04-13T00:58:09.669Z,95.70
2023-04-13T01:00:43.620Z,92.70
2023-04-13T01:03:13.020Z,92.50
2023-04-13T01:06:21.446Z,91.80
2023-04-13T01:09:04.562Z,91.20
2023-04-13T01:11:46.752Z,91.10
2023-04-13T01:14:23.546Z,91.90
2023-04-13T01:16:57.556Z,94.00
2023-04-13T01:19:59.864Z,94.20
2023-04-13T01:22:31.361Z,94.70
2023-04-13T01:25:18.119Z,96.10
2023-04-13T01:28:01.614Z,95.80
2023-04-13T01:30:31.801Z,94.80
2023-04-13T01:33:02.387Z,94.10
2023-04-13T01:35:29.793Z,94.70
2023-04-13T01:37:59.984Z,95.90
2023-04-13T01:40:29.203Z,96.20
2023-04-13T01:42:57.689Z,95.10
2023-04-13T01:45:29.397Z,94.10
2023-04-13T01:48:14.638Z,93.70
2023-04-13T01:50:44.489Z,93.00
2023-04-13T01:53:22.892Z,92.90
2023-04-13T01:55:50.379Z,92.50
2023-04-13T01:58:19.658Z,90.90
2023-04-13T02:00:47.790Z,91.10
2023-04-13T02:03:15.825Z,91.00
2023-04-13T02:05:43.128Z,92.70
2023-04-13T02:08:10.313Z,94.90
2023-04-13T02:10:38.222Z,95.50
2023-04-13T02:13:05.645Z,94.50
2023-04-13T02:15:36.319Z,92.90
2023-04-13T02:18:05.025Z,92.20
2023-04-13T02:20:40.555Z,91.70
2023-04-13T02:23:09.162Z,91.40
2023-04-13T02:25:36.707Z,92.70
2023-04-13T02:28:05.105Z,92.50
2023-04-13T02:30:32.325Z,92.50
2023-04-13T02:32:59.515Z,92.60
2023-04-13T02:35:27.610Z,92.80
2023-04-13T02:37:56.279Z,93.60
2023-04-13T02:40:24.313Z,95.90
2023-04-13T02:42:51.546Z,97.10
2023-04-13T02:45:18.720Z,98.10
2023-04-13T02:47:46.364Z,99.00
2023-04-13T02:50:13.769Z,99.40
2023-04-13T02:52:40.991Z,99.50
2023-04-13T02:55:09.221Z,99.10
2023-04-13T02:57:36.334Z,98.10
2023-04-13T03:00:10.307Z,97.70
2023-04-13T03:02:40.450Z,97.30
2023-04-13T03:05:08.596Z,97.10
2023-04-13T03:07:36.879Z,96.90
2023-04-13T03:10:05.761Z,96.70
2023-04-13T03:12:33.379Z,96.60
2023-04-13T03:15:04.947Z,97.10
2023-04-13T03:17:32.172Z,96.40
2023-04-13T03:20:00.074Z,96.00
2023-04-13T03:22:30.777Z,96.70
2023-04-13T03:24:57.961Z,97.00
2023-04-13T03:27:25.095Z,97.30
2023-04-13T03:29:52.325Z,96.70
2023-04-13T03:32:20.667Z,96.70
2023-04-13T03:34:47.766Z,98.00
2023-04-13T03:37:15.078Z,98.10
2023-04-13T03:39:42.349Z,98.10
2023-04-13T03:42:09.592Z,97.70
2023-04-13T03:44:36.752Z,97.40
2023-04-13T03:47:03.977Z,97.20
2023-04-13T03:49:31.207Z,97.10
2023-04-13T03:51:59.130Z,96.90
2023-04-13T03:54:26.423Z,96.70
2023-04-13T03:56:53.959Z,97.10
2023-04-13T03:59:21.300Z,97.20
2023-04-13T04:01:48.587Z,97.20
2023-04-13T04:04:16.181Z,96.90
2023-04-13T04:06:43.562Z,96.40
2023-04-13T04:09:10.800Z,95.50
2023-04-13T04:11:38.011Z,95.00
2023-04-13T04:14:05.378Z,94.40
2023-04-13T04:16:32.902Z,93.90
2023-04-13T04:19:00.150Z,93.50
2023-04-13T04:21:34.460Z,93.10
2023-04-13T04:24:02.424Z,93.30
2023-04-13T04:26:30.252Z,93.70
2023-04-13T04:29:03.578Z,93.90
2023-04-13T04:31:36.746Z,94.10
2023-04-13T04:34:04.884Z,94.30
2023-04-13T04:36:32.079Z,94.50
2023-04-13T04:39:02.868Z,94.30
2023-04-13T04:41:31.471Z,93.90
2023-04-13T04:44:02.909Z,93.80
2023-04-13T04:46:30.195Z,94.10
2023-04-13T04:49:01.138Z,94.70
2023-04-13T04:51:28.938Z,94.70
2023-04-13T04:53:58.847Z,94.80
2023-04-13T04:56:26.229Z,94.80
2023-04-13T04:58:53.430Z,95.00
2023-04-13T05:01:26.813Z,95.40
2023-04-13T05:03:54.552Z,96.10
2023-04-13T05:06:22.762Z,96.60
2023-04-13T05:08:50.008Z,97.00
2023-04-13T05:11:17.321Z,96.50
2023-04-13T05:13:44.700Z,96.40
2023-04-13T05:16:12.265Z,96.10
2023-04-13T05:18:46.136Z,95.20
2023-04-13T05:21:14.778Z,92.90
2023-04-13T05:23:42.988Z,91.20
2023-04-13T05:26:11.817Z,92.30
2023-04-13T05:28:39.890Z,91.80
2023-04-13T05:31:09.281Z,90.80
2023-04-13T05:33:36.708Z,90.70
2023-04-13T05:36:05.107Z,90.00
2023-04-13T05:38:33.386Z,89.50
2023-04-13T05:41:01.159Z,90.10
2023-04-13T05:43:28.352Z,90.10
2023-04-13T05:45:56.064Z,88.30
2023-04-13T05:48:23.243Z,88.20
2023-04-13T05:50:50.432Z,83.60
2023-04-13T05:53:17.705Z,84.60
2023-04-13T05:55:48.025Z,84.70
2023-04-13T05:58:15.620Z,84.50
2023-04-13T06:00:43.302Z,86.70
2023-04-13T06:03:11.418Z,85.80
2023-04-13T06:05:39.173Z,84.40
2023-04-13T06:08:06.333Z,85.20
2023-04-13T06:10:33.539Z,83.80
2023-04-13T06:13:00.894Z,82.80
2023-04-13T06:15:28.113Z,84.00
2023-04-13T06:17:55.409Z,82.00
2023-04-13T06:20:22.900Z,80.20
2023-04-13T06:22:50.311Z,80.30
2023-04-13T06:25:17.540Z,78.80
2023-04-13T06:27:44.896Z,80.20
2023-04-13T06:30:12.427Z,80.20
2023-04-13T06:32:39.698Z,76.60
2023-04-13T06:35:07.382Z,78.20
2023-04-13T06:37:35.895Z,77.30
2023-04-13T06:40:13.023Z,74.10
2023-04-13T06:42:43.989Z,76.40
2023-04-13T06:45:12.393Z,73.30
2023-04-13T06:47:43.273Z,75.20
2023-04-13T06:50:18.666Z,75.10
2023-04-13T06:52:47.484Z,74.90
2023-04-13T06:55:16.081Z,74.90
2023-04-13T06:57:43.881Z,75.00
2023-04-13T07:00:28.189Z,72.60
2023-04-13T07:02:58.453Z,74.90
2023-04-13T07:05:26.395Z,73.70
2023-04-13T07:07:55.013Z,74.80
2023-04-13T07:10:22.353Z,71.10
2023-04-13T07:12:49.549Z,72.00
2023-04-13T07:15:16.706Z,73.40
2023-04-13T07:17:44.112Z,71.30
2023-04-13T07:20:12.083Z,70.90
2023-04-13T07:22:39.407Z,72.50
2023-04-13T07:25:07.672Z,74.60
2023-04-13T07:27:34.942Z,72.00
2023-04-13T07:30:02.294Z,72.10
2023-04-13T07:32:31.410Z,69.20
2023-04-13T07:35:02.138Z,73.60
2023-04-13T07:37:29.961Z,72.80
2023-04-13T07:39:57.228Z,68.10
2023-04-13T07:42:25.304Z,69.00
2023-04-13T07:44:56.476Z,67.70
2023-04-13T07:47:23.823Z,69.40
2023-04-13T07:49:51.436Z,69.80
2023-04-13T07:52:19.435Z,69.30
2023-04-13T07:54:46.706Z,70.40
2023-04-13T07:57:13.941Z,71.10
2023-04-13T07:59:41.420Z,70.60
2023-04-13T08:02:08.626Z,68.80
2023-04-13T08:04:36.305Z,69.50
2023-04-13T08:07:07.482Z,70.20
2023-04-13T08:09:40.977Z,68.90
2023-04-13T08:12:09.188Z,68.90
2023-04-13T08:14:37.517Z,68.60
2023-04-13T08:17:06.303Z,68.40
2023-04-13T08:19:34.165Z,66.90
2023-04-13T08:22:02.326Z,67.20
2023-04-13T08:24:29.627Z,68.20
2023-04-13T08:26:58.975Z,68.40
2023-04-13T08:29:26.573Z,66.00
2023-04-13T08:31:53.958Z,66.40
2023-04-13T08:34:21.833Z,68.90
2023-04-13T08:36:49.081Z,66.70
2023-04-13T08:39:16.946Z,67.50
2023-04-13T08:41:47.363Z,68.60
2023-04-13T08:44:16.023Z,68.40
2023-04-13T08:46:46.170Z,68.00
2023-04-13T08:49:13.649Z,66.40
2023-04-13T08:51:43.966Z,66.90
2023-04-13T08:54:13.047Z,67.40
2023-04-13T08:56:46.942Z,65.30
2023-04-13T08:59:16.325Z,65.20
2023-04-13T09:01:46.725Z,65.00
2023-04-13T09:04:18.255Z,66.20
2023-04-13T09:06:50.360Z,64.90
2023-04-13T09:09:19.292Z,66.00
2023-04-13T09:11:47.867Z,65.20
2023-04-13T09:14:20.566Z,65.70
2023-04-13T09:16:47.935Z,66.80
2023-04-13T09:19:15.132Z,66.50
2023-04-13T09:21:44.177Z,66.90
2023-04-13T09:24:12.930Z,68.10
2023-04-13T09:26:50.035Z,67.80
2023-04-13T09:29:18.842Z,65.50
2023-04-13T09:31:47.718Z,67.40
2023-04-13T09:34:28.346Z,66.20
2023-04-13T09:36:56.771Z,65.70
2023-04-13T09:39:26.987Z,64.90
2023-04-13T09:41:55.186Z,66.10
2023-04-13T09:44:31.217Z,66.80
2023-04-13T09:46:59.561Z,65.90
2023-04-13T09:49:36.598Z,65.30
2023-04-13T09:52:04.158Z,64.90
2023-04-13T09:54:32.050Z,64.80
2023-04-13T09:56:59.920Z,64.60
2023-04-13T09:59:27.622Z,64.50
2023-04-13T10:01:55.398Z,66.20
2023-04-13T10:04:23.498Z,64.20
2023-04-13T10:06:52.533Z,65.20
2023-04-13T10:09:21.335Z,64.80
2023-04-13T10:11:51.907Z,64.20
2023-04-13T10:14:23.229Z,64.30
2023-04-13T10:17:07.878Z,63.60
2023-04-13T10:19:43.483Z,65.50
2023-04-13T10:22:11.992Z,63.40
2023-04-13T10:24:42.547Z,66.00
2023-04-13T10:27:17.118Z,66.10
2023-04-13T10:29:44.653Z,64.50
2023-04-13T10:32:28.395Z,65.60
2023-04-13T10:34:56.216Z,66.80
2023-04-13T10:37:25.352Z,66.00
2023-04-13T10:40:06.982Z,64.70
2023-04-13T10:42:52.358Z,69.10
2023-04-13T10:45:21.990Z,65.40
2023-04-13T10:47:49.316Z,66.70
2023-04-13T10:50:22.788Z,65.50
2023-04-13T10:53:07.001Z,66.30
2023-04-13T10:55:35.388Z,67.10
2023-04-13T10:58:03.483Z,66.00
2023-04-13T11:03:03.138Z,66.60
2023-04-13T11:05:31.286Z,63.90
2023-04-13T11:07:58.430Z,62.70
2023-04-13T11:10:30.270Z,63.60
2023-04-13T11:12:58.990Z,62.40
2023-04-13T11:15:30.735Z,62.80
2023-04-13T11:18:00.585Z,61.60
2023-04-13T11:20:35.504Z,60.40
2023-04-13T11:23:06.354Z,60.20
2023-04-13T11:25:36.520Z,58.90
2023-04-13T11:28:05.103Z,57.60
2023-04-13T11:30:32.872Z,59.10
2023-04-13T11:33:01.251Z,59.80
2023-04-13T11:35:28.545Z,57.80
2023-04-13T11:37:56.304Z,57.10
2023-04-13T11:40:27.659Z,58.30
2023-04-13T11:42:58.955Z,59.70
2023-04-13T11:45:31.127Z,58.20
2023-04-13T11:47:58.846Z,58.70
2023-04-13T11:50:27.200Z,57.80
2023-04-13T11:52:56.820Z,54.30
2023-04-13T11:55:25.542Z,53.00
2023-04-13T11:57:54.272Z,55.30
2023-04-13T12:00:27.127Z,52.50
2023-04-13T12:05:30.352Z,52.70
2023-04-13T12:07:58.985Z,53.50
2023-04-13T12:10:39.132Z,52.80
2023-04-13T12:16:05.565Z,53.00
2023-04-13T12:18:46.258Z,50.70
2023-04-13T12:21:17.652Z,52.40
2023-04-13T12:23:55.738Z,51.90
2023-04-13T12:27:10.140Z,52.70
2023-04-13T12:29:13.338Z,50.50
2023-04-13T12:31:40.657Z,51.90
2023-04-13T12:34:08.536Z,51.80
2023-04-13T12:36:37.005Z,53.80
2023-04-13T12:39:05.023Z,53.00
2023-04-13T12:41:32.789Z,52.80
2023-04-13T12:43:59.979Z,54.10
2023-04-13T12:46:27.258Z,54.40
2023-04-13T12:48:54.538Z,54.90
2023-04-13T12:51:21.723Z,55.80
2023-04-13T12:53:48.967Z,55.90
2023-04-13T12:56:16.287Z,57.40
2023-04-13T12:58:43.703Z,59.40
2023-04-13T13:01:11.058Z,58.10
2023-04-13T13:03:38.427Z,56.40
2023-04-13T13:06:07.330Z,59.10
2023-04-13T13:08:37.566Z,57.10
2023-04-13T13:11:08.583Z,56.60
2023-04-13T13:13:35.994Z,57.10
2023-04-13T13:16:03.875Z,57.90
2023-04-13T13:18:46.593Z,56.30
2023-04-13T13:21:17.842Z,56.70
2023-04-13T13:23:46.045Z,58.60
2023-04-13T13:28:43.672Z,60.40
2023-04-13T13:31:13.468Z,61.80
2023-04-13T13:33:40.621Z,62.90
2023-04-13T13:36:08.135Z,61.50
2023-04-13T13:38:36.866Z,60.60
2023-04-13T13:41:04.364Z,59.30
2023-04-13T13:43:31.583Z,59.90
2023-04-13T13:45:59.026Z,60.00
2023-04-13T13:48:26.217Z,59.90
2023-04-13T13:50:53.422Z,62.10
2023-04-13T13:53:20.805Z,60.70
2023-04-13T13:55:50.049Z,61.00
2023-04-13T13:58:17.486Z,60.60
2023-04-13T14:00:45.088Z,61.90
2023-04-13T14:03:15.249Z,61.80
2023-04-13T14:05:46.030Z,61.00
2023-04-13T14:08:13.539Z,60.90
2023-04-13T14:10:41.898Z,62.00
2023-04-13T14:13:09.063Z,62.30
2023-04-13T14:15:36.496Z,61.40
2023-04-13T14:18:10.329Z,62.90
2023-04-13T14:20:39.950Z,60.40
2023-04-13T14:23:09.811Z,60.40
2023-04-13T14:25:38.717Z,61.30
2023-04-13T14:28:07.030Z,61.80
2023-04-13T14:30:34.269Z,63.40
2023-04-13T14:33:02.270Z,63.10
2023-04-13T14:35:29.736Z,63.30
2023-04-13T14:37:57.474Z,62.90
2023-04-13T14:40:24.953Z,63.50
2023-04-13T14:42:53.086Z,63.20
2023-04-13T14:45:21.407Z,63.50
2023-04-13T14:47:48.932Z,65.00
2023-04-13T14:50:16.780Z,64.20
2023-04-13T14:52:45.175Z,65.40
2023-04-13T14:55:13.139Z,66.10
2023-04-13T14:57:41.752Z,65.60
2023-04-13T15:00:26.351Z,65.40
2023-04-13T15:02:53.772Z,67.20
2023-04-13T15:05:21.489Z,66.20
2023-04-13T15:07:49.098Z,67.90
2023-04-13T15:10:16.746Z,66.80
2023-04-13T15:12:44.049Z,66.10
2023-04-13T15:15:11.697Z,66.60
2023-04-13T15:17:38.998Z,66.70
2023-04-13T15:20:08.058Z,67.50
2023-04-13T15:22:36.326Z,68.20
2023-04-13T15:25:03.938Z,67.40
2023-04-13T15:27:31.318Z,68.90
2023-04-13T15:30:04.269Z,68.80
2023-04-13T15:32:34.425Z,71.10
2023-04-13T15:35:01.824Z,70.80
2023-04-13T15:37:28.964Z,72.80
2023-04-13T15:39:56.132Z,73.90
2023-04-13T15:42:23.387Z,73.40
2023-04-13T15:44:50.620Z,74.00
2023-04-13T15:47:17.753Z,73.60
2023-04-13T15:49:44.912Z,73.90
2023-04-13T15:52:12.162Z,72.60
2023-04-13T15:54:39.303Z,75.20
2023-04-13T15:57:07.012Z,75.10
2023-04-13T15:59:35.015Z,74.80
2023-04-13T16:02:02.601Z,75.00
2023-04-13T16:04:30.190Z,75.50
2023-04-13T16:07:11.904Z,74.50
2023-04-13T16:09:43.701Z,75.50
2023-04-13T16:12:11.999Z,73.90
2023-04-13T16:14:42.149Z,74.60
2023-04-13T16:17:10.612Z,76.30
2023-04-13T16:19:38.462Z,76.30
2023-04-13T16:22:06.128Z,75.90
2023-04-13T16:24:34.004Z,76.70
2023-04-13T16:27:02.469Z,77.20
2023-04-13T16:29:30.202Z,77.20
2023-04-13T16:31:57.390Z,78.10
2023-04-13T16:34:26.448Z,77.60
2023-04-13T16:36:54.295Z,77.60
2023-04-13T16:39:22.183Z,76.90
2023-04-13T16:41:49.460Z,78.40
2023-04-13T16:44:16.608Z,79.20
2023-04-13T16:46:43.891Z,79.10
2023-04-13T16:49:11.271Z,79.20
2023-04-13T16:51:38.676Z,80.10
2023-04-13T16:54:11.747Z,80.10
2023-04-13T16:56:38.941Z,80.40
2023-04-13T16:59:06.958Z,80.90
2023-04-13T17:01:37.183Z,81.30
2023-04-13T17:04:06.013Z,80.60
2023-04-13T17:06:37.677Z,81.60
2023-04-13T17:09:06.226Z,81.60
2023-04-13T17:11:33.731Z,81.90
2023-04-13T17:14:01.255Z,82.00
2023-04-13T17:16:29.701Z,82.80
2023-04-13T17:18:57.275Z,84.10
2023-04-13T17:21:24.887Z,84.20
2023-04-13T17:23:54.417Z,84.50
2023-04-13T17:26:21.612Z,85.00
2023-04-13T17:28:48.929Z,85.00
2023-04-13T17:31:16.863Z,84.80
2023-04-13T17:33:47.241Z,84.60
2023-04-13T17:36:16.148Z,84.80
2023-04-13T17:38:43.288Z,85.00
2023-04-13T17:41:11.760Z,85.40
2023-04-13T17:43:40.414Z,90.80
2023-04-13T17:46:08.650Z,91.50
2023-04-13T17:48:36.066Z,91.20
2023-04-13T17:51:03.305Z,91.10
2023-04-13T17:53:30.514Z,91.00
2023-04-13T17:55:57.620Z,90.90
2023-04-13T17:58:24.830Z,91.20
2023-04-13T18:00:51.982Z,91.90
2023-04-13T18:03:19.279Z,91.90
2023-04-13T18:05:46.721Z,91.80
2023-04-13T18:08:13.949Z,91.50
2023-04-13T18:10:41.255Z,91.60
2023-04-13T18:13:08.426Z,92.60
2023-04-13T18:15:36.142Z,93.00
2023-04-13T18:18:03.528Z,92.90
2023-04-13T18:20:30.884Z,92.60
2023-04-13T18:22:58.058Z,93.50
2023-04-13T18:25:25.522Z,94.40
2023-04-13T18:27:52.615Z,94.70
2023-04-13T18:30:21.156Z,94.40
2023-04-13T18:32:51.734Z,95.30
2023-04-13T18:35:19.407Z,96.30
2023-04-13T18:37:46.849Z,97.20
2023-04-13T18:40:14.200Z,97.30
2023-04-13T18:42:42.180Z,96.70
2023-04-13T18:45:09.780Z,99.90
2023-04-13T18:47:37.057Z,99.90
2023-04-13T18:50:06.144Z,98.80
2023-04-13T18:52:33.413Z,99.90
2023-04-13T18:55:00.889Z,99.20
2023-04-13T18:57:28.123Z,97.80
2023-04-13T18:59:55.322Z,97.70
2023-04-13T19:02:22.703Z,96.00
2023-04-13T19:04:50.309Z,93.90
2023-04-13T19:07:17.460Z,95.10
2023-04-13T19:09:44.728Z,98.80
2023-04-13T19:12:11.947Z,98.30
2023-04-13T19:14:39.298Z,98.30
2023-04-13T19:17:06.983Z,98.70
2023-04-13T19:19:34.217Z,97.40
2023-04-13T19:22:01.467Z,97.30
2023-04-13T19:24:28.782Z,96.60
2023-04-13T19:26:56.708Z,96.60
2023-04-13T19:29:27.212Z,96.60
2023-04-13T19:31:55.002Z,97.00
2023-04-13T19:34:22.545Z,97.10
2023-04-13T19:36:49.764Z,96.40
2023-04-13T19:39:17.091Z,96.40
2023-04-13T19:41:44.462Z,97.00
2023-04-13T19:44:13.692Z,96.10
2023-04-13T19:46:40.969Z,97.10
2023-04-13T19:49:08.350Z,96.20
2023-04-13T19:51:36.337Z,96.70
2023-04-13T19:54:05.149Z,97.50
2023-04-13T19:56:36.607Z,99.70
2023-04-13T19:59:05.533Z,99.90
2023-04-13T20:01:33.994Z,99.90
2023-04-13T20:04:04.419Z,99.90
2023-04-13T20:06:36.090Z,99.90
2023-04-13T20:09:12.913Z,99.90
2023-04-13T20:11:42.047Z,99.90
2023-04-13T20:14:13.163Z,99.90
2023-04-13T20:16:40.614Z,99.90
2023-04-13T20:19:09.678Z,99.90
2023-04-13T20:21:37.490Z,99.90
2023-04-13T20:24:04.901Z,99.70
2023-04-13T20:26:32.273Z,99.20
2023-04-13T20:29:01.415Z,99.90
2023-04-13T20:31:30.615Z,99.90
2023-04-13T20:33:58.485Z,99.90
2023-04-13T20:36:26.090Z,99.90
2023-04-13T20:38:54.495Z,99.90
2023-04-13T20:41:22.175Z,99.90
2023-04-13T20:43:51.380Z,99.90
2023-04-13T20:46:19.130Z,99.90
2023-04-13T20:48:51.550Z,99.90
2023-04-13T20:51:23.119Z,99.90
2023-04-13T20:53:50.351Z,99.90
2023-04-13T20:56:19.200Z,99.90
2023-04-13T20:58:50.323Z,98.30
2023-04-13T21:01:17.614Z,97.60
2023-04-13T21:03:45.064Z,98.20
2023-04-13T21:06:13.744Z,98.80
2023-04-13T21:08:41.081Z,99.60
2023-04-13T21:11:08.277Z,99.80
2023-04-13T21:13:35.820Z,99.90
2023-04-13T21:16:03.026Z,99.90
2023-04-13T21:18:30.256Z,99.90
2023-04-13T21:20:57.406Z,99.10
2023-04-13T21:23:24.590Z,98.30
2023-04-13T21:25:51.785Z,98.50
2023-04-13T21:28:18.946Z,98.60
2023-04-13T21:30:46.148Z,98.90
2023-04-13T21:33:13.300Z,98.90
2023-04-13T21:35:40.473Z,99.10
2023-04-13T21:38:07.707Z,99.00
2023-04-13T21:40:36.105Z,99.20
2023-04-13T21:43:03.846Z,99.00
2023-04-13T21:45:31.071Z,99.40
2023-04-13T21:47:58.356Z,99.70
2023-04-13T21:50:25.769Z,99.90
2023-04-13T21:52:52.857Z,99.90
2023-04-13T21:55:20.276Z,99.90
2023-04-13T21:57:48.250Z,99.90
2023-04-13T22:00:17.801Z,99.90
2023-04-13T22:02:45.262Z,99.90
2023-04-13T22:05:13.226Z,99.90
2023-04-13T22:07:43.420Z,99.90
2023-04-13T22:10:11.653Z,99.90
2023-04-13T22:12:38.970Z,99.90
2023-04-13T22:15:06.718Z,99.90
2023-04-13T22:17:33.947Z,99.90
2023-04-13T22:20:01.284Z,99.80
2023-04-13T22:22:28.533Z,99.90
2023-04-13T22:24:55.891Z,99.90
2023-04-13T22:27:23.046Z,99.90
2023-04-13T22:29:50.631Z,99.90
2023-04-13T22:32:17.728Z,99.90
2023-04-13T22:34:45.020Z,99.90
2023-04-13T22:37:15.157Z,99.90
2023-04-13T22:39:44.247Z,99.90
2023-04-13T22:42:11.769Z,99.90
2023-04-13T22:44:39.080Z,99.90
2023-04-13T22:47:06.585Z,99.90
2023-04-13T22:49:33.727Z,99.90
2023-04-13T22:52:00.943Z,99.90
2023-04-13T22:54:28.143Z,99.90
2023-04-13T22:56:55.417Z,99.90
2023-04-13T22:59:22.689Z,99.90
2023-04-13T23:01:49.900Z,99.90
2023-04-13T23:04:17.416Z,99.90
2023-04-13T23:06:44.778Z,99.90
2023-04-13T23:09:11.976Z,99.90
2023-04-13T23:11:39.295Z,99.90
2023-04-13T23:14:06.885Z,99.90
2023-04-13T23:16:35.084Z,99.90
2023-04-13T23:19:02.448Z,99.90
2023-04-13T23:21:31.486Z,99.90
2023-04-13T23:23:58.788Z,99.90
2023-04-13T23:26:26.127Z,99.90
2023-04-13T23:28:53.449Z,99.90
2023-04-13T23:31:21.202Z,99.90
2023-04-13T23:33:48.328Z,99.90
2023-04-13T23:36:16.411Z,99.90
2023-04-13T23:38:43.661Z,99.90
2023-04-13T23:41:10.837Z,99.90
2023-04-13T23:43:38.100Z,99.90
2023-04-13T23:46:05.399Z,99.90
2023-04-13T23:48:32.636Z,99.20
2023-04-13T23:50:59.842Z,98.40
2023-04-13T23:53:27.066Z,97.40
2023-04-13T23:55:54.304Z,95.90
2023-04-13T23:58:21.487Z,95.40
